Terminal Aerodrome Forecast
Issued by NWS

Home | Current Version | Previous Version | Text Only | Print | Product List | Glossary Off
Versions: 1 2 3 4 5 6 7 8 9 10 11 12 13 14 15 16 17 18 19 20 21 22 23 24

630
FTUS43 KABR 022328
TAFPIR
TAF
KPIR 022328Z 0300/0324 VRB05KT P6SM BKN070
     FM030600 21004KT 2SM BR SCT090
     FM031400 17008KT 5SM BR SCT120
     FM032200 20007KT P6SM BKN110=

USA.gov is the U.S. government's official web portal to all federal, state and local government web resources and services.